sensor_id;sensor_type;location;lat;lon;timestamp;temperature;humidity
423;DHT22;198;48.752;9.180;2023-10-08T00:02:17;15.20;47.70
423;DHT22;198;48.752;9.180;2023-10-08T00:04:50;15.20;48.30
423;DHT22;198;48.752;9.180;2023-10-08T00:07:26;15.20;49.60
423;DHT22;198;48.752;9.180;2023-10-08T00:09:53;15.20;49.10
423;DHT22;198;48.752;9.180;2023-10-08T00:12:19;15.20;48.00
423;DHT22;198;48.752;9.180;2023-10-08T00:14:46;15.10;47.10
423;DHT22;198;48.752;9.180;2023-10-08T00:17:15;15.20;46.90
423;DHT22;198;48.752;9.180;2023-10-08T00:19:42;15.20;46.20
423;DHT22;198;48.752;9.180;2023-10-08T00:22:09;15.30;46.30
423;DHT22;198;48.752;9.180;2023-10-08T00:24:36;15.30;46.30
423;DHT22;198;48.752;9.180;2023-10-08T00:27:03;15.30;46.20
423;DHT22;198;48.752;9.180;2023-10-08T00:29:32;15.40;46.30
423;DHT22;198;48.752;9.180;2023-10-08T00:31:57;15.40;46.00
423;DHT22;198;48.752;9.180;2023-10-08T00:34:23;15.50;46.00
423;DHT22;198;48.752;9.180;2023-10-08T00:36:50;15.60;45.80
423;DHT22;198;48.752;9.180;2023-10-08T00:39:16;15.60;45.10
423;DHT22;198;48.752;9.180;2023-10-08T00:41:59;15.60;45.10
423;DHT22;198;48.752;9.180;2023-10-08T00:44:25;15.80;45.00
423;DHT22;198;48.752;9.180;2023-10-08T00:46:59;15.80;44.80
423;DHT22;198;48.752;9.180;2023-10-08T00:49:27;15.90;44.80
423;DHT22;198;48.752;9.180;2023-10-08T00:52:14;15.90;44.80
423;DHT22;198;48.752;9.180;2023-10-08T00:54:41;15.80;44.60
423;DHT22;198;48.752;9.180;2023-10-08T00:57:25;15.80;44.80
423;DHT22;198;48.752;9.180;2023-10-08T00:59:51;15.80;44.60
423;DHT22;198;48.752;9.180;2023-10-08T01:02:22;15.90;44.60
423;DHT22;198;48.752;9.180;2023-10-08T01:04:56;15.90;44.50
423;DHT22;198;48.752;9.180;2023-10-08T01:07:22;15.90;44.50
423;DHT22;198;48.752;9.180;2023-10-08T01:09:49;15.90;44.50
423;DHT22;198;48.752;9.180;2023-10-08T01:12:25;15.90;44.50
423;DHT22;198;48.752;9.180;2023-10-08T01:15:01;15.90;44.50
423;DHT22;198;48.752;9.180;2023-10-08T01:17:43;15.90;44.60
423;DHT22;198;48.752;9.180;2023-10-08T01:20:24;15.90;44.80
423;DHT22;198;48.752;9.180;2023-10-08T01:23:06;15.90;44.60
423;DHT22;198;48.752;9.180;2023-10-08T01:25:39;15.90;44.50
423;DHT22;198;48.752;9.180;2023-10-08T01:28:05;15.80;44.50
423;DHT22;198;48.752;9.180;2023-10-08T01:30:43;15.80;44.60
423;DHT22;198;48.752;9.180;2023-10-08T01:33:12;15.70;44.70
423;DHT22;198;48.752;9.180;2023-10-08T01:35:40;15.70;44.70
423;DHT22;198;48.752;9.180;2023-10-08T01:38:06;15.60;44.70
423;DHT22;198;48.752;9.180;2023-10-08T01:40:32;15.50;44.70
423;DHT22;198;48.752;9.180;2023-10-08T01:42:58;15.50;44.80
423;DHT22;198;48.752;9.180;2023-10-08T01:45:29;15.50;44.90
423;DHT22;198;48.752;9.180;2023-10-08T01:47:55;15.40;45.00
423;DHT22;198;48.752;9.180;2023-10-08T01:50:22;15.40;45.60
423;DHT22;198;48.752;9.180;2023-10-08T01:52:51;15.30;46.70
423;DHT22;198;48.752;9.180;2023-10-08T01:55:17;15.30;47.10
423;DHT22;198;48.752;9.180;2023-10-08T01:57:44;15.20;47.10
423;DHT22;198;48.752;9.180;2023-10-08T02:00:10;15.20;47.50
423;DHT22;198;48.752;9.180;2023-10-08T02:02:36;15.20;47.50
423;DHT22;198;48.752;9.180;2023-10-08T02:05:01;15.10;47.50
423;DHT22;198;48.752;9.180;2023-10-08T02:07:28;15.10;47.60
423;DHT22;198;48.752;9.180;2023-10-08T02:09:54;15.10;48.20
423;DHT22;198;48.752;9.180;2023-10-08T02:12:19;15.00;48.80
423;DHT22;198;48.752;9.180;2023-10-08T02:14:45;15.00;48.90
423;DHT22;198;48.752;9.180;2023-10-08T02:17:10;15.00;49.40
423;DHT22;198;48.752;9.180;2023-10-08T02:19:38;14.90;49.70
423;DHT22;198;48.752;9.180;2023-10-08T02:22:04;14.90;50.20
423;DHT22;198;48.752;9.180;2023-10-08T02:24:35;14.80;50.20
423;DHT22;198;48.752;9.180;2023-10-08T02:27:00;14.80;50.70
423;DHT22;198;48.752;9.180;2023-10-08T02:29:30;14.70;51.00
423;DHT22;198;48.752;9.180;2023-10-08T02:31:56;14.70;51.70
423;DHT22;198;48.752;9.180;2023-10-08T02:34:22;14.60;52.20
423;DHT22;198;48.752;9.180;2023-10-08T02:36:48;14.50;52.60
423;DHT22;198;48.752;9.180;2023-10-08T02:39:14;14.50;53.80
423;DHT22;198;48.752;9.180;2023-10-08T02:41:48;14.50;53.70
423;DHT22;198;48.752;9.180;2023-10-08T02:44:15;14.40;54.10
423;DHT22;198;48.752;9.180;2023-10-08T02:46:46;14.30;54.60
423;DHT22;198;48.752;9.180;2023-10-08T02:49:16;14.30;55.20
423;DHT22;198;48.752;9.180;2023-10-08T02:51:50;14.30;56.00
423;DHT22;198;48.752;9.180;2023-10-08T02:54:16;14.20;55.40
423;DHT22;198;48.752;9.180;2023-10-08T02:56:45;14.20;55.60
423;DHT22;198;48.752;9.180;2023-10-08T02:59:12;14.10;55.70
423;DHT22;198;48.752;9.180;2023-10-08T03:01:38;14.10;56.20
423;DHT22;198;48.752;9.180;2023-10-08T03:04:06;14.00;56.30
423;DHT22;198;48.752;9.180;2023-10-08T03:06:40;14.00;56.20
423;DHT22;198;48.752;9.180;2023-10-08T03:09:06;13.90;56.00
423;DHT22;198;48.752;9.180;2023-10-08T03:11:33;13.90;55.90
423;DHT22;198;48.752;9.180;2023-10-08T03:14:01;13.90;55.90
423;DHT22;198;48.752;9.180;2023-10-08T03:16:26;13.90;56.50
423;DHT22;198;48.752;9.180;2023-10-08T03:19:01;13.80;57.10
423;DHT22;198;48.752;9.180;2023-10-08T03:21:26;13.80;56.70
423;DHT22;198;48.752;9.180;2023-10-08T03:24:04;13.80;56.20
423;DHT22;198;48.752;9.180;2023-10-08T03:26:38;13.80;56.20
423;DHT22;198;48.752;9.180;2023-10-08T03:29:10;13.80;56.90
423;DHT22;198;48.752;9.180;2023-10-08T03:31:42;13.80;57.20
423;DHT22;198;48.752;9.180;2023-10-08T03:34:14;13.80;57.80
423;DHT22;198;48.752;9.180;2023-10-08T03:36:43;13.70;58.20
423;DHT22;198;48.752;9.180;2023-10-08T03:39:17;13.70;58.50
423;DHT22;198;48.752;9.180;2023-10-08T03:41:46;13.70;58.90
423;DHT22;198;48.752;9.180;2023-10-08T03:44:31;13.70;59.30
423;DHT22;198;48.752;9.180;2023-10-08T03:46:57;13.70;59.60
423;DHT22;198;48.752;9.180;2023-10-08T03:49:23;13.70;59.80
423;DHT22;198;48.752;9.180;2023-10-08T03:51:49;13.70;60.00
423;DHT22;198;48.752;9.180;2023-10-08T03:54:21;13.70;60.40
423;DHT22;198;48.752;9.180;2023-10-08T03:56:59;13.70;60.70
423;DHT22;198;48.752;9.180;2023-10-08T03:59:26;13.60;61.00
423;DHT22;198;48.752;9.180;2023-10-08T04:01:55;13.60;60.70
423;DHT22;198;48.752;9.180;2023-10-08T04:04:24;13.60;60.90
423;DHT22;198;48.752;9.180;2023-10-08T04:07:10;13.60;61.50
423;DHT22;198;48.752;9.180;2023-10-08T04:09:59;13.60;62.20
423;DHT22;198;48.752;9.180;2023-10-08T04:12:35;13.60;62.50
423;DHT22;198;48.752;9.180;2023-10-08T04:15:02;13.50;63.10
423;DHT22;198;48.752;9.180;2023-10-08T04:17:35;13.50;63.80
423;DHT22;198;48.752;9.180;2023-10-08T04:20:12;13.50;63.80
423;DHT22;198;48.752;9.180;2023-10-08T04:22:59;13.50;62.90
423;DHT22;198;48.752;9.180;2023-10-08T04:25:29;13.50;61.10
423;DHT22;198;48.752;9.180;2023-10-08T04:27:55;13.50;61.00
423;DHT22;198;48.752;9.180;2023-10-08T04:30:27;13.50;60.10
423;DHT22;198;48.752;9.180;2023-10-08T04:33:00;13.50;60.20
423;DHT22;198;48.752;9.180;2023-10-08T04:35:32;13.60;59.60
423;DHT22;198;48.752;9.180;2023-10-08T04:38:03;13.60;59.10
423;DHT22;198;48.752;9.180;2023-10-08T04:40:28;13.60;58.90
423;DHT22;198;48.752;9.180;2023-10-08T04:42:58;13.70;59.30
423;DHT22;198;48.752;9.180;2023-10-08T04:45:27;13.70;59.30
423;DHT22;198;48.752;9.180;2023-10-08T04:47:53;13.80;59.80
423;DHT22;198;48.752;9.180;2023-10-08T04:50:19;13.80;59.40
423;DHT22;198;48.752;9.180;2023-10-08T04:52:46;13.90;59.40
423;DHT22;198;48.752;9.180;2023-10-08T04:55:24;13.90;60.30
423;DHT22;198;48.752;9.180;2023-10-08T04:57:56;13.90;61.80
423;DHT22;198;48.752;9.180;2023-10-08T05:00:23;13.90;61.60
423;DHT22;198;48.752;9.180;2023-10-08T05:03:16;13.90;62.00
423;DHT22;198;48.752;9.180;2023-10-08T05:05:42;13.90;60.70
423;DHT22;198;48.752;9.180;2023-10-08T05:08:27;14.00;58.50
423;DHT22;198;48.752;9.180;2023-10-08T05:11:10;14.10;56.70
423;DHT22;198;48.752;9.180;2023-10-08T05:14:02;14.10;55.90
423;DHT22;198;48.752;9.180;2023-10-08T05:16:32;14.20;55.70
423;DHT22;198;48.752;9.180;2023-10-08T05:19:08;14.20;56.30
423;DHT22;198;48.752;9.180;2023-10-08T05:21:59;14.20;56.10
423;DHT22;198;48.752;9.180;2023-10-08T05:24:46;14.20;55.40
423;DHT22;198;48.752;9.180;2023-10-08T05:27:30;14.30;55.10
423;DHT22;198;48.752;9.180;2023-10-08T05:30:14;14.20;55.10
423;DHT22;198;48.752;9.180;2023-10-08T05:33:00;14.30;55.30
423;DHT22;198;48.752;9.180;2023-10-08T05:35:40;14.30;55.70
423;DHT22;198;48.752;9.180;2023-10-08T05:38:10;14.20;57.10
423;DHT22;198;48.752;9.180;2023-10-08T05:40:47;14.20;57.40
423;DHT22;198;48.752;9.180;2023-10-08T05:43:27;14.20;57.20
423;DHT22;198;48.752;9.180;2023-10-08T05:46:12;14.20;57.80
423;DHT22;198;48.752;9.180;2023-10-08T05:48:59;14.20;57.80
423;DHT22;198;48.752;9.180;2023-10-08T05:51:30;14.20;57.10
423;DHT22;198;48.752;9.180;2023-10-08T05:54:21;14.20;57.20
423;DHT22;198;48.752;9.180;2023-10-08T05:57:05;14.30;56.20
423;DHT22;198;48.752;9.180;2023-10-08T05:59:40;14.40;55.60
423;DHT22;198;48.752;9.180;2023-10-08T06:02:40;14.40;56.20
423;DHT22;198;48.752;9.180;2023-10-08T06:05:10;14.40;56.80
423;DHT22;198;48.752;9.180;2023-10-08T06:07:42;14.40;56.30
423;DHT22;198;48.752;9.180;2023-10-08T06:10:26;14.40;56.40
423;DHT22;198;48.752;9.180;2023-10-08T06:13:02;14.50;55.80
423;DHT22;198;48.752;9.180;2023-10-08T06:18:25;14.60;55.40
423;DHT22;198;48.752;9.180;2023-10-08T06:21:00;14.70;55.60
423;DHT22;198;48.752;9.180;2023-10-08T06:23:27;14.70;56.30
423;DHT22;198;48.752;9.180;2023-10-08T06:25:55;14.80;55.70
423;DHT22;198;48.752;9.180;2023-10-08T06:28:37;14.90;55.00
423;DHT22;198;48.752;9.180;2023-10-08T06:31:04;15.00;54.10
423;DHT22;198;48.752;9.180;2023-10-08T06:33:37;15.10;53.70
423;DHT22;198;48.752;9.180;2023-10-08T06:36:04;15.10;53.40
423;DHT22;198;48.752;9.180;2023-10-08T06:38:30;15.10;53.10
423;DHT22;198;48.752;9.180;2023-10-08T06:41:00;15.20;53.30
423;DHT22;198;48.752;9.180;2023-10-08T06:43:26;15.20;52.80
423;DHT22;198;48.752;9.180;2023-10-08T06:45:52;15.30;52.80
423;DHT22;198;48.752;9.180;2023-10-08T06:48:19;15.30;52.90
423;DHT22;198;48.752;9.180;2023-10-08T06:50:46;15.30;52.80
423;DHT22;198;48.752;9.180;2023-10-08T06:53:13;15.30;52.80
423;DHT22;198;48.752;9.180;2023-10-08T06:55:40;15.30;52.50
423;DHT22;198;48.752;9.180;2023-10-08T06:58:07;15.40;52.80
423;DHT22;198;48.752;9.180;2023-10-08T07:00:35;15.40;53.10
423;DHT22;198;48.752;9.180;2023-10-08T07:03:20;15.40;53.20
423;DHT22;198;48.752;9.180;2023-10-08T07:05:48;15.50;52.90
423;DHT22;198;48.752;9.180;2023-10-08T07:08:23;15.70;52.70
423;DHT22;198;48.752;9.180;2023-10-08T07:10:52;15.80;52.50
423;DHT22;198;48.752;9.180;2023-10-08T07:13:19;16.10;52.60
423;DHT22;198;48.752;9.180;2023-10-08T07:15:50;16.20;52.30
423;DHT22;198;48.752;9.180;2023-10-08T07:18:16;16.50;52.00
423;DHT22;198;48.752;9.180;2023-10-08T07:20:51;16.60;51.30
423;DHT22;198;48.752;9.180;2023-10-08T07:23:22;16.80;51.10
423;DHT22;198;48.752;9.180;2023-10-08T07:25:59;17.00;50.10
423;DHT22;198;48.752;9.180;2023-10-08T07:28:38;17.00;50.10
423;DHT22;198;48.752;9.180;2023-10-08T07:31:15;17.20;50.10
423;DHT22;198;48.752;9.180;2023-10-08T07:33:48;17.60;50.10
423;DHT22;198;48.752;9.180;2023-10-08T07:36:34;18.00;49.40
423;DHT22;198;48.752;9.180;2023-10-08T07:38:59;18.40;48.90
423;DHT22;198;48.752;9.180;2023-10-08T07:41:29;18.80;48.20
423;DHT22;198;48.752;9.180;2023-10-08T07:43:54;19.10;47.40
423;DHT22;198;48.752;9.180;2023-10-08T07:46:24;19.30;47.00
423;DHT22;198;48.752;9.180;2023-10-08T07:48:54;19.50;46.70
423;DHT22;198;48.752;9.180;2023-10-08T07:51:20;19.70;46.40
423;DHT22;198;48.752;9.180;2023-10-08T07:53:52;19.90;46.40
423;DHT22;198;48.752;9.180;2023-10-08T07:56:23;20.20;45.90
423;DHT22;198;48.752;9.180;2023-10-08T07:58:50;20.50;45.70
423;DHT22;198;48.752;9.180;2023-10-08T08:01:16;20.60;45.40
423;DHT22;198;48.752;9.180;2023-10-08T08:03:42;20.70;45.00
423;DHT22;198;48.752;9.180;2023-10-08T08:06:08;20.60;44.80
423;DHT22;198;48.752;9.180;2023-10-08T08:08:38;20.60;44.90
423;DHT22;198;48.752;9.180;2023-10-08T08:11:05;20.60;44.90
423;DHT22;198;48.752;9.180;2023-10-08T08:13:34;20.60;45.20
423;DHT22;198;48.752;9.180;2023-10-08T08:16:00;20.70;45.20
423;DHT22;198;48.752;9.180;2023-10-08T08:18:36;20.60;45.00
423;DHT22;198;48.752;9.180;2023-10-08T08:21:01;20.50;45.80
423;DHT22;198;48.752;9.180;2023-10-08T08:23:30;20.50;45.60
423;DHT22;198;48.752;9.180;2023-10-08T08:25:57;20.50;46.20
423;DHT22;198;48.752;9.180;2023-10-08T08:28:39;20.60;46.40
423;DHT22;198;48.752;9.180;2023-10-08T08:31:06;21.00;46.90
423;DHT22;198;48.752;9.180;2023-10-08T08:33:40;21.30;47.10
423;DHT22;198;48.752;9.180;2023-10-08T08:36:19;21.60;47.40
423;DHT22;198;48.752;9.180;2023-10-08T08:38:44;22.00;46.30
423;DHT22;198;48.752;9.180;2023-10-08T08:41:10;22.60;45.60
423;DHT22;198;48.752;9.180;2023-10-08T08:43:38;23.30;44.20
423;DHT22;198;48.752;9.180;2023-10-08T08:46:10;24.10;43.10
423;DHT22;198;48.752;9.180;2023-10-08T08:48:42;24.60;42.70
423;DHT22;198;48.752;9.180;2023-10-08T08:51:10;25.10;42.10
423;DHT22;198;48.752;9.180;2023-10-08T08:53:36;26.10;40.20
423;DHT22;198;48.752;9.180;2023-10-08T08:56:02;27.00;39.50
423;DHT22;198;48.752;9.180;2023-10-08T08:58:33;27.70;36.20
423;DHT22;198;48.752;9.180;2023-10-08T09:00:59;28.00;35.00
423;DHT22;198;48.752;9.180;2023-10-08T09:03:25;27.80;34.60
423;DHT22;198;48.752;9.180;2023-10-08T09:05:56;27.50;34.40
423;DHT22;198;48.752;9.180;2023-10-08T09:08:22;27.20;35.80
423;DHT22;198;48.752;9.180;2023-10-08T09:10:50;26.80;35.40
423;DHT22;198;48.752;9.180;2023-10-08T09:13:22;26.70;35.30
423;DHT22;198;48.752;9.180;2023-10-08T09:15:49;27.20;35.90
423;DHT22;198;48.752;9.180;2023-10-08T09:18:15;28.70;34.10
423;DHT22;198;48.752;9.180;2023-10-08T09:20:41;30.10;30.50
423;DHT22;198;48.752;9.180;2023-10-08T09:23:11;31.40;29.70
423;DHT22;198;48.752;9.180;2023-10-08T09:25:44;32.50;29.60
423;DHT22;198;48.752;9.180;2023-10-08T09:28:11;34.30;28.00
423;DHT22;198;48.752;9.180;2023-10-08T09:30:40;36.00;26.70
423;DHT22;198;48.752;9.180;2023-10-08T09:33:10;37.20;25.20
423;DHT22;198;48.752;9.180;2023-10-08T09:35:37;36.80;23.10
423;DHT22;198;48.752;9.180;2023-10-08T09:38:04;35.70;23.40
423;DHT22;198;48.752;9.180;2023-10-08T09:40:30;34.60;24.30
423;DHT22;198;48.752;9.180;2023-10-08T09:42:56;33.10;24.40
423;DHT22;198;48.752;9.180;2023-10-08T09:45:22;31.90;25.60
423;DHT22;198;48.752;9.180;2023-10-08T09:47:53;31.10;26.50
423;DHT22;198;48.752;9.180;2023-10-08T09:50:27;30.50;27.20
423;DHT22;198;48.752;9.180;2023-10-08T09:55:25;29.70;28.40
423;DHT22;198;48.752;9.180;2023-10-08T09:57:51;29.10;29.00
423;DHT22;198;48.752;9.180;2023-10-08T10:00:20;29.10;29.20
423;DHT22;198;48.752;9.180;2023-10-08T10:02:57;28.70;29.00
423;DHT22;198;48.752;9.180;2023-10-08T10:05:23;28.20;29.80
423;DHT22;198;48.752;9.180;2023-10-08T10:07:49;27.60;30.90
423;DHT22;198;48.752;9.180;2023-10-08T10:10:28;27.50;31.10
423;DHT22;198;48.752;9.180;2023-10-08T10:13:10;27.40;31.50
423;DHT22;198;48.752;9.180;2023-10-08T10:15:36;27.40;31.50
423;DHT22;198;48.752;9.180;2023-10-08T10:18:29;27.30;32.20
423;DHT22;198;48.752;9.180;2023-10-08T10:21:00;27.40;32.20
423;DHT22;198;48.752;9.180;2023-10-08T10:26:01;28.20;31.70
423;DHT22;198;48.752;9.180;2023-10-08T10:28:28;28.50;31.50
423;DHT22;198;48.752;9.180;2023-10-08T10:30:55;28.50;31.30
423;DHT22;198;48.752;9.180;2023-10-08T10:33:29;28.50;31.80
423;DHT22;198;48.752;9.180;2023-10-08T10:35:55;28.50;32.90
423;DHT22;198;48.752;9.180;2023-10-08T10:38:21;28.60;32.10
423;DHT22;198;48.752;9.180;2023-10-08T10:40:51;28.60;32.80
423;DHT22;198;48.752;9.180;2023-10-08T10:43:24;28.80;32.10
423;DHT22;198;48.752;9.180;2023-10-08T10:45:58;29.00;32.00
423;DHT22;198;48.752;9.180;2023-10-08T10:48:24;29.30;31.40
423;DHT22;198;48.752;9.180;2023-10-08T10:50:59;29.40;31.90
423;DHT22;198;48.752;9.180;2023-10-08T10:53:40;29.50;31.00
423;DHT22;198;48.752;9.180;2023-10-08T10:56:31;29.80;30.90
423;DHT22;198;48.752;9.180;2023-10-08T10:59:01;30.20;31.30
423;DHT22;198;48.752;9.180;2023-10-08T11:01:40;30.40;30.80
423;DHT22;198;48.752;9.180;2023-10-08T11:04:20;30.60;31.00
423;DHT22;198;48.752;9.180;2023-10-08T11:06:54;30.50;30.10
423;DHT22;198;48.752;9.180;2023-10-08T11:09:24;30.40;30.30
423;DHT22;198;48.752;9.180;2023-10-08T11:12:02;30.60;30.40
423;DHT22;198;48.752;9.180;2023-10-08T11:14:39;30.50;29.90
423;DHT22;198;48.752;9.180;2023-10-08T11:17:12;30.00;29.40
423;DHT22;198;48.752;9.180;2023-10-08T11:19:41;30.00;30.00
423;DHT22;198;48.752;9.180;2023-10-08T11:22:08;30.00;30.10
423;DHT22;198;48.752;9.180;2023-10-08T11:24:42;29.80;30.00
423;DHT22;198;48.752;9.180;2023-10-08T11:27:10;30.10;30.30
423;DHT22;198;48.752;9.180;2023-10-08T11:29:47;30.40;31.00
423;DHT22;198;48.752;9.180;2023-10-08T11:32:15;30.60;29.60
423;DHT22;198;48.752;9.180;2023-10-08T11:34:46;31.10;29.40
423;DHT22;198;48.752;9.180;2023-10-08T11:37:26;32.30;28.00
423;DHT22;198;48.752;9.180;2023-10-08T11:39:51;33.30;27.00
423;DHT22;198;48.752;9.180;2023-10-08T11:42:18;35.50;26.00
423;DHT22;198;48.752;9.180;2023-10-08T11:45:02;38.30;24.50
423;DHT22;198;48.752;9.180;2023-10-08T11:47:47;41.40;21.70
423;DHT22;198;48.752;9.180;2023-10-08T11:50:23;43.00;19.90
423;DHT22;198;48.752;9.180;2023-10-08T11:52:56;44.40;19.00
423;DHT22;198;48.752;9.180;2023-10-08T11:55:27;44.00;18.30
423;DHT22;198;48.752;9.180;2023-10-08T11:57:52;44.00;18.80
423;DHT22;198;48.752;9.180;2023-10-08T12:00:18;43.40;17.70
423;DHT22;198;48.752;9.180;2023-10-08T12:02:50;42.80;18.50
423;DHT22;198;48.752;9.180;2023-10-08T12:05:17;43.40;18.20
423;DHT22;198;48.752;9.180;2023-10-08T12:07:49;44.20;18.00
423;DHT22;198;48.752;9.180;2023-10-08T12:10:19;45.50;17.20
423;DHT22;198;48.752;9.180;2023-10-08T12:12:49;46.80;16.90
423;DHT22;198;48.752;9.180;2023-10-08T12:15:14;47.60;16.20
423;DHT22;198;48.752;9.180;2023-10-08T12:17:49;48.50;16.00
423;DHT22;198;48.752;9.180;2023-10-08T12:20:40;49.70;14.90
423;DHT22;198;48.752;9.180;2023-10-08T12:23:12;51.10;14.20
423;DHT22;198;48.752;9.180;2023-10-08T12:25:48;51.10;14.10
423;DHT22;198;48.752;9.180;2023-10-08T12:28:17;51.10;14.10
423;DHT22;198;48.752;9.180;2023-10-08T12:30:44;51.50;14.20
423;DHT22;198;48.752;9.180;2023-10-08T12:33:10;51.60;13.40
423;DHT22;198;48.752;9.180;2023-10-08T12:35:39;51.30;13.30
423;DHT22;198;48.752;9.180;2023-10-08T12:38:05;51.70;13.00
423;DHT22;198;48.752;9.180;2023-10-08T12:40:31;52.00;12.80
423;DHT22;198;48.752;9.180;2023-10-08T12:43:08;52.30;13.10
423;DHT22;198;48.752;9.180;2023-10-08T12:45:33;52.50;12.70
423;DHT22;198;48.752;9.180;2023-10-08T12:47:59;52.30;12.90
423;DHT22;198;48.752;9.180;2023-10-08T12:50:25;51.80;12.90
423;DHT22;198;48.752;9.180;2023-10-08T12:53:11;51.30;13.30
423;DHT22;198;48.752;9.180;2023-10-08T12:55:38;52.50;13.70
423;DHT22;198;48.752;9.180;2023-10-08T12:58:07;52.80;13.40
423;DHT22;198;48.752;9.180;2023-10-08T13:00:36;52.80;12.30
423;DHT22;198;48.752;9.180;2023-10-08T13:03:03;51.90;11.90
423;DHT22;198;48.752;9.180;2023-10-08T13:05:32;52.10;12.20
423;DHT22;198;48.752;9.180;2023-10-08T13:07:59;52.40;12.40
423;DHT22;198;48.752;9.180;2023-10-08T13:10:35;52.70;12.30
423;DHT22;198;48.752;9.180;2023-10-08T13:13:00;52.70;11.50
423;DHT22;198;48.752;9.180;2023-10-08T13:15:26;52.10;11.90
423;DHT22;198;48.752;9.180;2023-10-08T13:17:52;51.80;12.00
423;DHT22;198;48.752;9.180;2023-10-08T13:20:18;52.10;12.00
423;DHT22;198;48.752;9.180;2023-10-08T13:22:43;52.30;12.30
423;DHT22;198;48.752;9.180;2023-10-08T13:25:10;52.70;12.10
423;DHT22;198;48.752;9.180;2023-10-08T13:27:37;52.40;11.50
423;DHT22;198;48.752;9.180;2023-10-08T13:30:06;52.50;11.50
423;DHT22;198;48.752;9.180;2023-10-08T13:32:37;52.60;11.30
423;DHT22;198;48.752;9.180;2023-10-08T13:35:04;52.80;11.70
423;DHT22;198;48.752;9.180;2023-10-08T13:37:35;53.00;11.80
423;DHT22;198;48.752;9.180;2023-10-08T13:40:01;53.30;11.00
423;DHT22;198;48.752;9.180;2023-10-08T13:42:27;52.90;11.50
423;DHT22;198;48.752;9.180;2023-10-08T13:44:54;53.10;12.00
423;DHT22;198;48.752;9.180;2023-10-08T13:47:20;53.10;12.00
423;DHT22;198;48.752;9.180;2023-10-08T13:49:49;52.80;11.40
423;DHT22;198;48.752;9.180;2023-10-08T13:52:15;51.70;11.90
423;DHT22;198;48.752;9.180;2023-10-08T13:54:42;51.40;11.90
423;DHT22;198;48.752;9.180;2023-10-08T13:57:16;51.00;12.20
423;DHT22;198;48.752;9.180;2023-10-08T13:59:44;51.00;12.30
423;DHT22;198;48.752;9.180;2023-10-08T14:02:09;51.10;12.10
423;DHT22;198;48.752;9.180;2023-10-08T14:04:44;50.80;12.50
423;DHT22;198;48.752;9.180;2023-10-08T14:07:10;50.90;12.50
423;DHT22;198;48.752;9.180;2023-10-08T14:09:47;50.50;12.40
423;DHT22;198;48.752;9.180;2023-10-08T14:12:13;50.40;12.70
423;DHT22;198;48.752;9.180;2023-10-08T14:14:42;50.10;12.60
423;DHT22;198;48.752;9.180;2023-10-08T14:17:11;50.50;12.60
423;DHT22;198;48.752;9.180;2023-10-08T14:19:41;50.00;12.10
423;DHT22;198;48.752;9.180;2023-10-08T14:22:17;49.70;12.10
423;DHT22;198;48.752;9.180;2023-10-08T14:24:47;48.80;12.50
423;DHT22;198;48.752;9.180;2023-10-08T14:27:26;48.20;13.10
423;DHT22;198;48.752;9.180;2023-10-08T14:29:58;48.40;13.20
423;DHT22;198;48.752;9.180;2023-10-08T14:32:29;48.40;13.60
423;DHT22;198;48.752;9.180;2023-10-08T14:34:57;48.50;13.80
423;DHT22;198;48.752;9.180;2023-10-08T14:37:23;48.50;13.60
423;DHT22;198;48.752;9.180;2023-10-08T14:40:07;48.10;13.50
423;DHT22;198;48.752;9.180;2023-10-08T14:42:52;47.60;13.30
423;DHT22;198;48.752;9.180;2023-10-08T14:45:22;47.40;13.50
423;DHT22;198;48.752;9.180;2023-10-08T14:47:52;47.00;13.70
423;DHT22;198;48.752;9.180;2023-10-08T14:50:18;46.60;14.10
423;DHT22;198;48.752;9.180;2023-10-08T14:52:44;46.10;13.60
423;DHT22;198;48.752;9.180;2023-10-08T14:55:10;45.40;13.70
423;DHT22;198;48.752;9.180;2023-10-08T14:57:39;45.20;14.00
423;DHT22;198;48.752;9.180;2023-10-08T15:00:06;44.70;14.30
423;DHT22;198;48.752;9.180;2023-10-08T15:02:32;44.30;14.40
423;DHT22;198;48.752;9.180;2023-10-08T15:04:58;43.80;14.60
423;DHT22;198;48.752;9.180;2023-10-08T15:07:26;43.60;15.20
423;DHT22;198;48.752;9.180;2023-10-08T15:09:53;43.00;15.80
423;DHT22;198;48.752;9.180;2023-10-08T15:12:21;42.40;15.90
423;DHT22;198;48.752;9.180;2023-10-08T15:14:47;41.80;16.30
423;DHT22;198;48.752;9.180;2023-10-08T15:17:15;40.70;16.00
423;DHT22;198;48.752;9.180;2023-10-08T15:19:42;40.20;17.50
423;DHT22;198;48.752;9.180;2023-10-08T15:22:08;40.10;17.30
423;DHT22;198;48.752;9.180;2023-10-08T15:24:33;40.10;17.30
423;DHT22;198;48.752;9.180;2023-10-08T15:27:02;39.90;17.40
423;DHT22;198;48.752;9.180;2023-10-08T15:29:27;39.50;17.30
423;DHT22;198;48.752;9.180;2023-10-08T15:31:54;39.40;17.70
423;DHT22;198;48.752;9.180;2023-10-08T15:34:22;38.80;18.50
423;DHT22;198;48.752;9.180;2023-10-08T15:36:49;38.10;18.40
423;DHT22;198;48.752;9.180;2023-10-08T15:39:15;37.10;19.60
423;DHT22;198;48.752;9.180;2023-10-08T15:41:48;36.60;20.10
423;DHT22;198;48.752;9.180;2023-10-08T15:44:13;35.50;21.20
423;DHT22;198;48.752;9.180;2023-10-08T15:46:39;34.10;21.70
423;DHT22;198;48.752;9.180;2023-10-08T15:49:04;33.10;22.30
423;DHT22;198;48.752;9.180;2023-10-08T15:51:30;32.30;23.30
423;DHT22;198;48.752;9.180;2023-10-08T15:54:00;31.70;24.00
423;DHT22;198;48.752;9.180;2023-10-08T15:56:29;31.00;24.40
423;DHT22;198;48.752;9.180;2023-10-08T15:58:54;30.50;25.40
423;DHT22;198;48.752;9.180;2023-10-08T16:01:20;29.80;25.90
423;DHT22;198;48.752;9.180;2023-10-08T16:03:46;29.30;26.50
423;DHT22;198;48.752;9.180;2023-10-08T16:06:12;28.90;27.10
423;DHT22;198;48.752;9.180;2023-10-08T16:08:37;28.50;28.80
423;DHT22;198;48.752;9.180;2023-10-08T16:11:03;28.20;29.10
423;DHT22;198;48.752;9.180;2023-10-08T16:13:28;28.00;31.00
423;DHT22;198;48.752;9.180;2023-10-08T16:15:54;27.50;30.00
423;DHT22;198;48.752;9.180;2023-10-08T16:18:20;27.10;30.30
423;DHT22;198;48.752;9.180;2023-10-08T16:20:46;26.90;31.70
423;DHT22;198;48.752;9.180;2023-10-08T16:23:12;26.50;32.10
423;DHT22;198;48.752;9.180;2023-10-08T16:25:39;26.10;33.10
423;DHT22;198;48.752;9.180;2023-10-08T16:28:05;25.80;34.20
423;DHT22;198;48.752;9.180;2023-10-08T16:30:30;25.40;34.40
423;DHT22;198;48.752;9.180;2023-10-08T16:32:58;25.00;35.10
423;DHT22;198;48.752;9.180;2023-10-08T16:35:23;24.60;36.30
423;DHT22;198;48.752;9.180;2023-10-08T16:37:53;24.40;37.00
423;DHT22;198;48.752;9.180;2023-10-08T16:40:19;24.00;37.30
423;DHT22;198;48.752;9.180;2023-10-08T16:42:46;23.70;38.30
423;DHT22;198;48.752;9.180;2023-10-08T16:45:12;23.50;38.40
423;DHT22;198;48.752;9.180;2023-10-08T16:47:42;23.20;39.10
423;DHT22;198;48.752;9.180;2023-10-08T16:50:08;22.90;39.50
423;DHT22;198;48.752;9.180;2023-10-08T16:52:33;22.60;40.80
423;DHT22;198;48.752;9.180;2023-10-08T16:54:59;22.40;41.60
423;DHT22;198;48.752;9.180;2023-10-08T16:57:25;22.10;42.30
423;DHT22;198;48.752;9.180;2023-10-08T16:59:51;21.90;42.80
423;DHT22;198;48.752;9.180;2023-10-08T17:02:17;21.70;43.60
423;DHT22;198;48.752;9.180;2023-10-08T17:04:42;21.50;44.20